sensor_id;sensor_type;location;lat;lon;timestamp;P1;durP1;ratioP1;P2;durP2;ratioP2
12585;SDS011;6358;50.760;0.282;2023-12-22T00:00:07;1.90;;;1.70;;
12585;SDS011;6358;50.760;0.282;2023-12-22T00:02:33;4.10;;;2.00;;
12585;SDS011;6358;50.760;0.282;2023-12-22T00:04:59;6.17;;;2.40;;
12585;SDS011;6358;50.760;0.282;2023-12-22T00:07:25;5.07;;;1.90;;
12585;SDS011;6358;50.760;0.282;2023-12-22T00:09:52;3.80;;;1.90;;
12585;SDS011;6358;50.760;0.282;2023-12-22T00:12:18;4.50;;;2.00;;
12585;SDS011;6358;50.760;0.282;2023-12-22T00:14:44;4.03;;;1.77;;
12585;SDS011;6358;50.760;0.282;2023-12-22T00:17:10;4.07;;;1.80;;
12585;SDS011;6358;50.760;0.282;2023-12-22T00:19:36;3.33;;;1.93;;
12585;SDS011;6358;50.760;0.282;2023-12-22T00:22:02;3.30;;;1.87;;
12585;SDS011;6358;50.760;0.282;2023-12-22T00:24:29;3.37;;;1.80;;
12585;SDS011;6358;50.760;0.282;2023-12-22T00:26:55;3.30;;;1.80;;
12585;SDS011;6358;50.760;0.282;2023-12-22T00:29:21;3.83;;;2.00;;
12585;SDS011;6358;50.760;0.282;2023-12-22T00:31:47;3.27;;;1.80;;
12585;SDS011;6358;50.760;0.282;2023-12-22T00:34:13;4.00;;;2.10;;
12585;SDS011;6358;50.760;0.282;2023-12-22T00:36:39;3.23;;;1.73;;
12585;SDS011;6358;50.760;0.282;2023-12-22T00:39:05;2.87;;;1.80;;
12585;SDS011;6358;50.760;0.282;2023-12-22T00:41:32;3.77;;;1.90;;
12585;SDS011;6358;50.760;0.282;2023-12-22T00:43:58;5.03;;;1.70;;
12585;SDS011;6358;50.760;0.282;2023-12-22T00:46:25;2.60;;;1.63;;
12585;SDS011;6358;50.760;0.282;2023-12-22T00:48:51;2.83;;;1.60;;
12585;SDS011;6358;50.760;0.282;2023-12-22T00:51:17;4.00;;;2.00;;
12585;SDS011;6358;50.760;0.282;2023-12-22T00:53:43;3.23;;;1.73;;
12585;SDS011;6358;50.760;0.282;2023-12-22T00:56:09;4.73;;;2.30;;
12585;SDS011;6358;50.760;0.282;2023-12-22T00:58:38;4.07;;;1.80;;
12585;SDS011;6358;50.760;0.282;2023-12-22T01:01:04;3.53;;;2.03;;
12585;SDS011;6358;50.760;0.282;2023-12-22T01:03:30;5.73;;;1.90;;
12585;SDS011;6358;50.760;0.282;2023-12-22T01:05:56;4.30;;;1.80;;
12585;SDS011;6358;50.760;0.282;2023-12-22T01:08:22;3.83;;;1.90;;
12585;SDS011;6358;50.760;0.282;2023-12-22T01:10:48;3.20;;;1.90;;
12585;SDS011;6358;50.760;0.282;2023-12-22T01:13:15;4.40;;;2.10;;
12585;SDS011;6358;50.760;0.282;2023-12-22T01:15:41;3.77;;;2.17;;
12585;SDS011;6358;50.760;0.282;2023-12-22T01:18:09;5.30;;;2.17;;
12585;SDS011;6358;50.760;0.282;2023-12-22T01:20:35;3.93;;;1.80;;
12585;SDS011;6358;50.760;0.282;2023-12-22T01:23:01;3.30;;;1.73;;
12585;SDS011;6358;50.760;0.282;2023-12-22T01:25:27;3.43;;;1.80;;
12585;SDS011;6358;50.760;0.282;2023-12-22T01:27:53;4.40;;;2.13;;
12585;SDS011;6358;50.760;0.282;2023-12-22T01:30:19;2.67;;;1.87;;
12585;SDS011;6358;50.760;0.282;2023-12-22T01:32:45;2.73;;;1.63;;
12585;SDS011;6358;50.760;0.282;2023-12-22T01:35:11;4.00;;;1.77;;
12585;SDS011;6358;50.760;0.282;2023-12-22T01:37:38;3.57;;;1.67;;
12585;SDS011;6358;50.760;0.282;2023-12-22T01:40:05;3.60;;;1.87;;
12585;SDS011;6358;50.760;0.282;2023-12-22T01:42:31;2.30;;;1.43;;
12585;SDS011;6358;50.760;0.282;2023-12-22T01:44:57;2.53;;;1.57;;
12585;SDS011;6358;50.760;0.282;2023-12-22T01:47:23;3.50;;;1.70;;
12585;SDS011;6358;50.760;0.282;2023-12-22T01:49:50;2.13;;;1.63;;
12585;SDS011;6358;50.760;0.282;2023-12-22T01:52:16;4.30;;;1.83;;
12585;SDS011;6358;50.760;0.282;2023-12-22T01:54:43;3.33;;;1.50;;
12585;SDS011;6358;50.760;0.282;2023-12-22T01:57:10;2.93;;;1.60;;
12585;SDS011;6358;50.760;0.282;2023-12-22T01:59:40;3.23;;;1.97;;
12585;SDS011;6358;50.760;0.282;2023-12-22T02:02:06;3.53;;;1.50;;
12585;SDS011;6358;50.760;0.282;2023-12-22T02:04:32;3.40;;;1.70;;
12585;SDS011;6358;50.760;0.282;2023-12-22T02:06:59;3.20;;;1.63;;
12585;SDS011;6358;50.760;0.282;2023-12-22T02:09:26;2.80;;;1.80;;
12585;SDS011;6358;50.760;0.282;2023-12-22T02:11:52;3.90;;;1.73;;
12585;SDS011;6358;50.760;0.282;2023-12-22T02:14:19;3.70;;;1.80;;
12585;SDS011;6358;50.760;0.282;2023-12-22T02:16:46;3.33;;;1.90;;
12585;SDS011;6358;50.760;0.282;2023-12-22T02:19:23;4.17;;;1.90;;
12585;SDS011;6358;50.760;0.282;2023-12-22T02:22:06;3.37;;;1.80;;
12585;SDS011;6358;50.760;0.282;2023-12-22T02:24:33;3.13;;;1.87;;
12585;SDS011;6358;50.760;0.282;2023-12-22T02:27:03;3.37;;;1.70;;
12585;SDS011;6358;50.760;0.282;2023-12-22T02:29:37;3.00;;;1.83;;
12585;SDS011;6358;50.760;0.282;2023-12-22T02:32:06;3.27;;;1.70;;
12585;SDS011;6358;50.760;0.282;2023-12-22T02:34:35;2.67;;;1.63;;
12585;SDS011;6358;50.760;0.282;2023-12-22T02:37:04;4.60;;;1.60;;
12585;SDS011;6358;50.760;0.282;2023-12-22T02:39:32;3.07;;;1.80;;
12585;SDS011;6358;50.760;0.282;2023-12-22T02:41:58;4.67;;;1.93;;
12585;SDS011;6358;50.760;0.282;2023-12-22T02:44:25;3.40;;;1.53;;
12585;SDS011;6358;50.760;0.282;2023-12-22T02:46:51;3.27;;;1.50;;
12585;SDS011;6358;50.760;0.282;2023-12-22T02:49:18;3.53;;;1.73;;
12585;SDS011;6358;50.760;0.282;2023-12-22T02:51:44;3.03;;;1.60;;
12585;SDS011;6358;50.760;0.282;2023-12-22T02:54:10;3.50;;;1.60;;
12585;SDS011;6358;50.760;0.282;2023-12-22T02:56:36;3.47;;;1.93;;
12585;SDS011;6358;50.760;0.282;2023-12-22T02:59:02;2.83;;;1.63;;
12585;SDS011;6358;50.760;0.282;2023-12-22T03:01:28;3.47;;;1.73;;
12585;SDS011;6358;50.760;0.282;2023-12-22T03:03:55;2.73;;;1.60;;
12585;SDS011;6358;50.760;0.282;2023-12-22T03:06:21;2.07;;;1.53;;
12585;SDS011;6358;50.760;0.282;2023-12-22T03:08:47;4.07;;;1.83;;
12585;SDS011;6358;50.760;0.282;2023-12-22T03:11:13;3.03;;;1.70;;
12585;SDS011;6358;50.760;0.282;2023-12-22T03:13:39;3.73;;;1.63;;
12585;SDS011;6358;50.760;0.282;2023-12-22T03:16:08;2.40;;;1.60;;
12585;SDS011;6358;50.760;0.282;2023-12-22T03:18:35;4.00;;;1.77;;
12585;SDS011;6358;50.760;0.282;2023-12-22T03:21:03;4.00;;;1.70;;
12585;SDS011;6358;50.760;0.282;2023-12-22T03:23:30;3.17;;;1.50;;
12585;SDS011;6358;50.760;0.282;2023-12-22T03:25:56;3.57;;;1.67;;
12585;SDS011;6358;50.760;0.282;2023-12-22T03:28:22;3.43;;;1.50;;
12585;SDS011;6358;50.760;0.282;2023-12-22T03:30:48;2.40;;;1.33;;
12585;SDS011;6358;50.760;0.282;2023-12-22T03:33:14;2.40;;;1.50;;
12585;SDS011;6358;50.760;0.282;2023-12-22T03:35:40;2.63;;;1.30;;
12585;SDS011;6358;50.760;0.282;2023-12-22T03:38:07;1.93;;;1.27;;
12585;SDS011;6358;50.760;0.282;2023-12-22T03:40:33;3.37;;;1.50;;
12585;SDS011;6358;50.760;0.282;2023-12-22T03:42:59;1.97;;;1.60;;
12585;SDS011;6358;50.760;0.282;2023-12-22T03:45:25;2.27;;;1.50;;
12585;SDS011;6358;50.760;0.282;2023-12-22T03:47:51;1.67;;;1.33;;
12585;SDS011;6358;50.760;0.282;2023-12-22T03:50:17;3.73;;;1.83;;
12585;SDS011;6358;50.760;0.282;2023-12-22T03:52:43;2.37;;;1.50;;
12585;SDS011;6358;50.760;0.282;2023-12-22T03:55:09;3.23;;;1.50;;
12585;SDS011;6358;50.760;0.282;2023-12-22T03:57:36;2.20;;;1.23;;
12585;SDS011;6358;50.760;0.282;2023-12-22T04:00:02;3.47;;;1.60;;
12585;SDS011;6358;50.760;0.282;2023-12-22T04:02:29;3.17;;;1.40;;
12585;SDS011;6358;50.760;0.282;2023-12-22T04:04:55;3.20;;;1.50;;
12585;SDS011;6358;50.760;0.282;2023-12-22T04:07:21;2.97;;;1.23;;
12585;SDS011;6358;50.760;0.282;2023-12-22T04:09:47;3.23;;;1.67;;
12585;SDS011;6358;50.760;0.282;2023-12-22T04:12:13;3.10;;;1.43;;
12585;SDS011;6358;50.760;0.282;2023-12-22T04:14:39;3.87;;;1.60;;
12585;SDS011;6358;50.760;0.282;2023-12-22T04:17:06;3.77;;;1.37;;
12585;SDS011;6358;50.760;0.282;2023-12-22T04:19:32;2.10;;;1.20;;
12585;SDS011;6358;50.760;0.282;2023-12-22T04:21:58;3.63;;;1.40;;
12585;SDS011;6358;50.760;0.282;2023-12-22T04:24:24;3.70;;;1.40;;
12585;SDS011;6358;50.760;0.282;2023-12-22T04:26:50;4.60;;;1.80;;
12585;SDS011;6358;50.760;0.282;2023-12-22T04:29:16;2.83;;;1.57;;
12585;SDS011;6358;50.760;0.282;2023-12-22T04:31:42;2.70;;;1.50;;
12585;SDS011;6358;50.760;0.282;2023-12-22T04:34:09;2.80;;;1.33;;
12585;SDS011;6358;50.760;0.282;2023-12-22T04:36:35;3.13;;;1.60;;
12585;SDS011;6358;50.760;0.282;2023-12-22T04:39:02;2.60;;;1.50;;
12585;SDS011;6358;50.760;0.282;2023-12-22T04:41:28;2.67;;;1.40;;
12585;SDS011;6358;50.760;0.282;2023-12-22T04:43:54;3.10;;;1.20;;
12585;SDS011;6358;50.760;0.282;2023-12-22T04:46:20;2.17;;;1.40;;
12585;SDS011;6358;50.760;0.282;2023-12-22T04:48:46;1.87;;;1.10;;
12585;SDS011;6358;50.760;0.282;2023-12-22T04:51:12;3.10;;;1.60;;
12585;SDS011;6358;50.760;0.282;2023-12-22T04:53:38;2.70;;;1.37;;
12585;SDS011;6358;50.760;0.282;2023-12-22T04:56:05;2.80;;;1.30;;
12585;SDS011;6358;50.760;0.282;2023-12-22T04:58:31;3.60;;;1.50;;
12585;SDS011;6358;50.760;0.282;2023-12-22T05:00:57;3.37;;;1.33;;
12585;SDS011;6358;50.760;0.282;2023-12-22T05:03:24;3.33;;;1.73;;
12585;SDS011;6358;50.760;0.282;2023-12-22T05:05:50;3.10;;;1.47;;
12585;SDS011;6358;50.760;0.282;2023-12-22T05:08:16;2.60;;;1.33;;
12585;SDS011;6358;50.760;0.282;2023-12-22T05:10:42;2.87;;;1.43;;
12585;SDS011;6358;50.760;0.282;2023-12-22T05:13:09;2.63;;;1.20;;
12585;SDS011;6358;50.760;0.282;2023-12-22T05:15:35;3.40;;;1.50;;
12585;SDS011;6358;50.760;0.282;2023-12-22T05:18:01;1.60;;;1.27;;
12585;SDS011;6358;50.760;0.282;2023-12-22T05:20:27;2.67;;;1.50;;
12585;SDS011;6358;50.760;0.282;2023-12-22T05:22:53;3.83;;;1.37;;
12585;SDS011;6358;50.760;0.282;2023-12-22T05:25:20;2.63;;;1.40;;
12585;SDS011;6358;50.760;0.282;2023-12-22T05:27:46;2.13;;;1.30;;
12585;SDS011;6358;50.760;0.282;2023-12-22T05:30:12;3.00;;;1.10;;
12585;SDS011;6358;50.760;0.282;2023-12-22T05:32:38;3.70;;;1.50;;
12585;SDS011;6358;50.760;0.282;2023-12-22T05:35:05;2.63;;;1.30;;
12585;SDS011;6358;50.760;0.282;2023-12-22T05:37:31;1.50;;;1.10;;
12585;SDS011;6358;50.760;0.282;2023-12-22T05:39:57;2.20;;;1.27;;
12585;SDS011;6358;50.760;0.282;2023-12-22T05:42:23;2.50;;;1.20;;
12585;SDS011;6358;50.760;0.282;2023-12-22T05:44:49;2.63;;;1.30;;
12585;SDS011;6358;50.760;0.282;2023-12-22T05:47:16;2.97;;;1.50;;
12585;SDS011;6358;50.760;0.282;2023-12-22T05:49:43;2.30;;;1.30;;
12585;SDS011;6358;50.760;0.282;2023-12-22T05:52:09;3.33;;;1.40;;
12585;SDS011;6358;50.760;0.282;2023-12-22T05:54:35;2.40;;;1.27;;
12585;SDS011;6358;50.760;0.282;2023-12-22T05:57:01;2.80;;;1.37;;
12585;SDS011;6358;50.760;0.282;2023-12-22T05:59:30;2.03;;;1.30;;
12585;SDS011;6358;50.760;0.282;2023-12-22T06:01:57;2.87;;;1.47;;
12585;SDS011;6358;50.760;0.282;2023-12-22T06:04:24;2.87;;;1.30;;
12585;SDS011;6358;50.760;0.282;2023-12-22T06:06:50;2.37;;;1.40;;
12585;SDS011;6358;50.760;0.282;2023-12-22T06:09:16;3.40;;;1.27;;
12585;SDS011;6358;50.760;0.282;2023-12-22T06:11:48;2.33;;;1.20;;
12585;SDS011;6358;50.760;0.282;2023-12-22T06:14:14;2.20;;;1.30;;
12585;SDS011;6358;50.760;0.282;2023-12-22T06:16:40;1.97;;;1.20;;
12585;SDS011;6358;50.760;0.282;2023-12-22T06:19:06;3.10;;;1.20;;
12585;SDS011;6358;50.760;0.282;2023-12-22T06:21:33;3.33;;;1.50;;
12585;SDS011;6358;50.760;0.282;2023-12-22T06:23:59;3.07;;;1.30;;
12585;SDS011;6358;50.760;0.282;2023-12-22T06:26:25;1.07;;;0.90;;
12585;SDS011;6358;50.760;0.282;2023-12-22T06:28:51;2.00;;;1.27;;
12585;SDS011;6358;50.760;0.282;2023-12-22T06:31:18;2.47;;;1.30;;
12585;SDS011;6358;50.760;0.282;2023-12-22T06:33:45;3.13;;;1.27;;
12585;SDS011;6358;50.760;0.282;2023-12-22T06:36:44;2.17;;;1.43;;
12585;SDS011;6358;50.760;0.282;2023-12-22T06:39:03;2.40;;;1.30;;
12585;SDS011;6358;50.760;0.282;2023-12-22T06:41:30;2.53;;;1.37;;
12585;SDS011;6358;50.760;0.282;2023-12-22T06:43:57;2.20;;;1.20;;
12585;SDS011;6358;50.760;0.282;2023-12-22T06:46:27;1.70;;;1.00;;
12585;SDS011;6358;50.760;0.282;2023-12-22T06:48:54;2.10;;;1.20;;
12585;SDS011;6358;50.760;0.282;2023-12-22T06:51:21;3.00;;;1.43;;
12585;SDS011;6358;50.760;0.282;2023-12-22T06:53:48;2.87;;;1.20;;
12585;SDS011;6358;50.760;0.282;2023-12-22T06:56:21;4.00;;;1.33;;
12585;SDS011;6358;50.760;0.282;2023-12-22T06:58:47;3.57;;;1.40;;
12585;SDS011;6358;50.760;0.282;2023-12-22T07:01:24;2.73;;;1.40;;
12585;SDS011;6358;50.760;0.282;2023-12-22T07:03:50;1.80;;;1.10;;
12585;SDS011;6358;50.760;0.282;2023-12-22T07:06:17;2.23;;;1.30;;
12585;SDS011;6358;50.760;0.282;2023-12-22T07:08:44;2.87;;;1.30;;
12585;SDS011;6358;50.760;0.282;2023-12-22T07:11:22;1.67;;;1.10;;
12585;SDS011;6358;50.760;0.282;2023-12-22T07:13:48;2.30;;;1.20;;
12585;SDS011;6358;50.760;0.282;2023-12-22T07:16:14;1.77;;;1.10;;
12585;SDS011;6358;50.760;0.282;2023-12-22T07:18:40;2.07;;;1.30;;
12585;SDS011;6358;50.760;0.282;2023-12-22T07:21:07;2.27;;;0.90;;
12585;SDS011;6358;50.760;0.282;2023-12-22T07:23:33;2.10;;;1.23;;
12585;SDS011;6358;50.760;0.282;2023-12-22T07:25:59;2.67;;;1.37;;
12585;SDS011;6358;50.760;0.282;2023-12-22T07:28:25;1.43;;;0.90;;
12585;SDS011;6358;50.760;0.282;2023-12-22T07:30:52;2.27;;;1.20;;
12585;SDS011;6358;50.760;0.282;2023-12-22T07:33:19;1.57;;;1.07;;
12585;SDS011;6358;50.760;0.282;2023-12-22T07:35:45;3.37;;;1.60;;
12585;SDS011;6358;50.760;0.282;2023-12-22T07:38:11;2.47;;;1.40;;
12585;SDS011;6358;50.760;0.282;2023-12-22T07:40:37;4.17;;;1.73;;
12585;SDS011;6358;50.760;0.282;2023-12-22T07:43:03;3.50;;;1.57;;
12585;SDS011;6358;50.760;0.282;2023-12-22T07:45:29;2.80;;;1.57;;
12585;SDS011;6358;50.760;0.282;2023-12-22T07:47:55;3.70;;;1.60;;
12585;SDS011;6358;50.760;0.282;2023-12-22T07:50:21;3.73;;;1.70;;
12585;SDS011;6358;50.760;0.282;2023-12-22T07:52:48;3.73;;;1.57;;
12585;SDS011;6358;50.760;0.282;2023-12-22T07:55:15;4.77;;;1.60;;
12585;SDS011;6358;50.760;0.282;2023-12-22T07:57:41;4.40;;;1.53;;
12585;SDS011;6358;50.760;0.282;2023-12-22T08:00:07;3.80;;;1.50;;
12585;SDS011;6358;50.760;0.282;2023-12-22T08:02:34;3.90;;;1.90;;
12585;SDS011;6358;50.760;0.282;2023-12-22T08:05:00;4.90;;;1.60;;
12585;SDS011;6358;50.760;0.282;2023-12-22T08:07:26;5.37;;;1.67;;
12585;SDS011;6358;50.760;0.282;2023-12-22T08:09:52;3.70;;;1.87;;
12585;SDS011;6358;50.760;0.282;2023-12-22T08:12:18;3.60;;;1.47;;
12585;SDS011;6358;50.760;0.282;2023-12-22T08:14:44;3.87;;;1.80;;
12585;SDS011;6358;50.760;0.282;2023-12-22T08:17:11;6.07;;;1.90;;
12585;SDS011;6358;50.760;0.282;2023-12-22T08:19:38;3.97;;;1.83;;
12585;SDS011;6358;50.760;0.282;2023-12-22T08:22:08;4.60;;;2.00;;
12585;SDS011;6358;50.760;0.282;2023-12-22T08:24:34;3.73;;;1.53;;
12585;SDS011;6358;50.760;0.282;2023-12-22T08:27:01;3.37;;;1.70;;
12585;SDS011;6358;50.760;0.282;2023-12-22T08:29:27;2.57;;;1.50;;
12585;SDS011;6358;50.760;0.282;2023-12-22T08:31:53;4.53;;;2.00;;
12585;SDS011;6358;50.760;0.282;2023-12-22T08:34:19;3.83;;;1.70;;
12585;SDS011;6358;50.760;0.282;2023-12-22T08:36:46;4.80;;;1.80;;
12585;SDS011;6358;50.760;0.282;2023-12-22T08:39:12;5.87;;;1.83;;
12585;SDS011;6358;50.760;0.282;2023-12-22T08:41:38;5.93;;;1.80;;
12585;SDS011;6358;50.760;0.282;2023-12-22T08:44:05;4.40;;;1.77;;
12585;SDS011;6358;50.760;0.282;2023-12-22T08:46:31;4.90;;;1.60;;
12585;SDS011;6358;50.760;0.282;2023-12-22T08:48:57;3.33;;;2.00;;
12585;SDS011;6358;50.760;0.282;2023-12-22T08:51:25;4.43;;;1.70;;
12585;SDS011;6358;50.760;0.282;2023-12-22T08:53:51;12.17;;;5.13;;
12585;SDS011;6358;50.760;0.282;2023-12-22T08:56:17;18.47;;;7.57;;
12585;SDS011;6358;50.760;0.282;2023-12-22T08:58:43;33.13;;;13.23;;
12585;SDS011;6358;50.760;0.282;2023-12-22T09:01:16;25.53;;;12.40;;
12585;SDS011;6358;50.760;0.282;2023-12-22T09:03:42;24.10;;;11.50;;
12585;SDS011;6358;50.760;0.282;2023-12-22T09:06:13;22.23;;;10.60;;
12585;SDS011;6358;50.760;0.282;2023-12-22T09:08:40;21.63;;;10.43;;
12585;SDS011;6358;50.760;0.282;2023-12-22T09:11:06;15.97;;;8.80;;
12585;SDS011;6358;50.760;0.282;2023-12-22T09:13:33;22.60;;;10.33;;
12585;SDS011;6358;50.760;0.282;2023-12-22T09:16:01;22.10;;;11.23;;
12585;SDS011;6358;50.760;0.282;2023-12-22T09:18:30;19.33;;;10.80;;
12585;SDS011;6358;50.760;0.282;2023-12-22T09:20:57;23.73;;;10.73;;
12585;SDS011;6358;50.760;0.282;2023-12-22T09:23:23;24.53;;;10.90;;
12585;SDS011;6358;50.760;0.282;2023-12-22T09:25:49;21.13;;;9.63;;
12585;SDS011;6358;50.760;0.282;2023-12-22T09:28:17;22.33;;;9.13;;
12585;SDS011;6358;50.760;0.282;2023-12-22T09:30:43;19.33;;;9.30;;
12585;SDS011;6358;50.760;0.282;2023-12-22T09:33:09;17.57;;;9.07;;
12585;SDS011;6358;50.760;0.282;2023-12-22T09:35:36;19.00;;;7.90;;
12585;SDS011;6358;50.760;0.282;2023-12-22T09:38:02;17.23;;;8.20;;
12585;SDS011;6358;50.760;0.282;2023-12-22T09:40:29;17.27;;;7.73;;
12585;SDS011;6358;50.760;0.282;2023-12-22T09:42:55;14.73;;;7.90;;
12585;SDS011;6358;50.760;0.282;2023-12-22T09:45:23;15.00;;;7.73;;
12585;SDS011;6358;50.760;0.282;2023-12-22T09:47:50;13.03;;;7.47;;
12585;SDS011;6358;50.760;0.282;2023-12-22T09:50:19;14.20;;;6.80;;
12585;SDS011;6358;50.760;0.282;2023-12-22T09:52:45;18.40;;;7.63;;
12585;SDS011;6358;50.760;0.282;2023-12-22T09:55:15;13.97;;;6.33;;
12585;SDS011;6358;50.760;0.282;2023-12-22T09:57:42;12.40;;;6.47;;
12585;SDS011;6358;50.760;0.282;2023-12-22T10:00:09;13.60;;;6.63;;
12585;SDS011;6358;50.760;0.282;2023-12-22T10:02:37;13.93;;;6.63;;
12585;SDS011;6358;50.760;0.282;2023-12-22T10:05:03;13.77;;;6.27;;
12585;SDS011;6358;50.760;0.282;2023-12-22T10:07:30;12.67;;;6.03;;
12585;SDS011;6358;50.760;0.282;2023-12-22T10:09:56;12.17;;;5.40;;
12585;SDS011;6358;50.760;0.282;2023-12-22T10:12:22;12.07;;;4.63;;
12585;SDS011;6358;50.760;0.282;2023-12-22T10:14:50;12.47;;;4.80;;
12585;SDS011;6358;50.760;0.282;2023-12-22T10:17:17;11.50;;;4.73;;
12585;SDS011;6358;50.760;0.282;2023-12-22T10:19:43;11.37;;;4.63;;
12585;SDS011;6358;50.760;0.282;2023-12-22T10:22:10;11.97;;;4.63;;
12585;SDS011;6358;50.760;0.282;2023-12-22T10:24:36;10.03;;;4.80;;
12585;SDS011;6358;50.760;0.282;2023-12-22T10:27:03;11.57;;;4.50;;
12585;SDS011;6358;50.760;0.282;2023-12-22T10:29:29;9.30;;;4.63;;
12585;SDS011;6358;50.760;0.282;2023-12-22T10:31:55;10.57;;;4.50;;
12585;SDS011;6358;50.760;0.282;2023-12-22T10:34:22;9.53;;;3.97;;
12585;SDS011;6358;50.760;0.282;2023-12-22T10:36:48;8.90;;;3.93;;
12585;SDS011;6358;50.760;0.282;2023-12-22T10:39:14;10.27;;;4.23;;
12585;SDS011;6358;50.760;0.282;2023-12-22T10:41:41;10.70;;;4.37;;
12585;SDS011;6358;50.760;0.282;2023-12-22T10:44:07;9.07;;;4.37;;
12585;SDS011;6358;50.760;0.282;2023-12-22T10:46:33;12.03;;;4.30;;
12585;SDS011;6358;50.760;0.282;2023-12-22T10:49:00;9.90;;;4.03;;
12585;SDS011;6358;50.760;0.282;2023-12-22T10:51:29;9.40;;;3.90;;
12585;SDS011;6358;50.760;0.282;2023-12-22T10:53:58;8.47;;;3.90;;
12585;SDS011;6358;50.760;0.282;2023-12-22T10:56:26;11.00;;;3.90;;
12585;SDS011;6358;50.760;0.282;2023-12-22T10:58:53;7.47;;;3.27;;
12585;SDS011;6358;50.760;0.282;2023-12-22T11:01:20;7.13;;;3.50;;
12585;SDS011;6358;50.760;0.282;2023-12-22T11:03:48;9.67;;;3.63;;
12585;SDS011;6358;50.760;0.282;2023-12-22T11:06:16;8.03;;;3.43;;
12585;SDS011;6358;50.760;0.282;2023-12-22T11:08:43;7.63;;;3.60;;
12585;SDS011;6358;50.760;0.282;2023-12-22T11:11:13;8.57;;;3.37;;
12585;SDS011;6358;50.760;0.282;2023-12-22T11:13:42;6.73;;;3.30;;
12585;SDS011;6358;50.760;0.282;2023-12-22T11:16:11;7.97;;;2.97;;
12585;SDS011;6358;50.760;0.282;2023-12-22T11:18:38;5.20;;;2.93;;
12585;SDS011;6358;50.760;0.282;2023-12-22T11:21:05;5.00;;;2.70;;
12585;SDS011;6358;50.760;0.282;2023-12-22T11:26:14;8.13;;;2.73;;
12585;SDS011;6358;50.760;0.282;2023-12-22T11:28:41;6.57;;;3.00;;
12585;SDS011;6358;50.760;0.282;2023-12-22T11:31:09;6.70;;;2.90;;
12585;SDS011;6358;50.760;0.282;2023-12-22T11:33:36;8.00;;;3.37;;
12585;SDS011;6358;50.760;0.282;2023-12-22T11:36:03;9.03;;;3.17;;
12585;SDS011;6358;50.760;0.282;2023-12-22T11:38:32;6.93;;;2.60;;
12585;SDS011;6358;50.760;0.282;2023-12-22T11:40:58;7.77;;;2.67;;
12585;SDS011;6358;50.760;0.282;2023-12-22T11:43:25;7.47;;;2.80;;
12585;SDS011;6358;50.760;0.282;2023-12-22T11:45:51;6.90;;;2.63;;
12585;SDS011;6358;50.760;0.282;2023-12-22T11:48:17;6.90;;;2.87;;
12585;SDS011;6358;50.760;0.282;2023-12-22T11:50:43;8.83;;;2.70;;
12585;SDS011;6358;50.760;0.282;2023-12-22T11:53:22;5.13;;;2.40;;
12585;SDS011;6358;50.760;0.282;2023-12-22T11:58:37;8.03;;;2.57;;
12585;SDS011;6358;50.760;0.282;2023-12-22T12:01:07;9.60;;;2.87;;
12585;SDS011;6358;50.760;0.282;2023-12-22T12:03:36;5.93;;;2.00;;
12585;SDS011;6358;50.760;0.282;2023-12-22T12:06:37;6.00;;;2.40;;
12585;SDS011;6358;50.760;0.282;2023-12-22T12:08:56;7.30;;;2.57;;
12585;SDS011;6358;50.760;0.282;2023-12-22T12:11:23;7.73;;;2.47;;
12585;SDS011;6358;50.760;0.282;2023-12-22T12:13:50;7.30;;;2.50;;
12585;SDS011;6358;50.760;0.282;2023-12-22T12:16:19;5.70;;;2.10;;
12585;SDS011;6358;50.760;0.282;2023-12-22T12:18:49;7.03;;;2.20;;
12585;SDS011;6358;50.760;0.282;2023-12-22T12:21:18;4.63;;;1.93;;
12585;SDS011;6358;50.760;0.282;2023-12-22T12:23:44;4.67;;;2.03;;
12585;SDS011;6358;50.760;0.282;2023-12-22T12:26:10;6.77;;;2.30;;
12585;SDS011;6358;50.760;0.282;2023-12-22T12:28:37;5.73;;;2.40;;
12585;SDS011;6358;50.760;0.282;2023-12-22T12:31:07;7.40;;;2.27;;
12585;SDS011;6358;50.760;0.282;2023-12-22T12:33:36;6.47;;;1.97;;
12585;SDS011;6358;50.760;0.282;2023-12-22T12:36:03;5.10;;;2.20;;
12585;SDS011;6358;50.760;0.282;2023-12-22T12:41:14;6.90;;;2.70;;
12585;SDS011;6358;50.760;0.282;2023-12-22T12:43:42;4.87;;;2.13;;
12585;SDS011;6358;50.760;0.282;2023-12-22T12:46:08;5.20;;;2.13;;
12585;SDS011;6358;50.760;0.282;2023-12-22T12:48:35;7.40;;;2.30;;
12585;SDS011;6358;50.760;0.282;2023-12-22T12:51:03;7.93;;;2.20;;
12585;SDS011;6358;50.760;0.282;2023-12-22T12:53:30;5.37;;;2.10;;
12585;SDS011;6358;50.760;0.282;2023-12-22T12:55:57;5.93;;;2.07;;
12585;SDS011;6358;50.760;0.282;2023-12-22T12:58:33;4.13;;;2.17;;
12585;SDS011;6358;50.760;0.282;2023-12-22T13:01:04;3.43;;;1.53;;
12585;SDS011;6358;50.760;0.282;2023-12-22T13:03:30;3.07;;;1.83;;
12585;SDS011;6358;50.760;0.282;2023-12-22T13:06:07;3.53;;;1.80;;
12585;SDS011;6358;50.760;0.282;2023-12-22T13:08:33;4.97;;;1.93;;
12585;SDS011;6358;50.760;0.282;2023-12-22T13:10:59;3.83;;;1.60;;
12585;SDS011;6358;50.760;0.282;2023-12-22T13:13:26;5.03;;;1.90;;
12585;SDS011;6358;50.760;0.282;2023-12-22T13:15:52;5.37;;;2.20;;
12585;SDS011;6358;50.760;0.282;2023-12-22T13:18:18;4.17;;;1.77;;
12585;SDS011;6358;50.760;0.282;2023-12-22T13:20:45;4.47;;;1.80;;
12585;SDS011;6358;50.760;0.282;2023-12-22T13:23:11;3.97;;;2.10;;
12585;SDS011;6358;50.760;0.282;2023-12-22T13:25:38;3.43;;;1.50;;
12585;SDS011;6358;50.760;0.282;2023-12-22T13:28:04;3.40;;;1.80;;
12585;SDS011;6358;50.760;0.282;2023-12-22T13:30:37;4.97;;;1.83;;
12585;SDS011;6358;50.760;0.282;2023-12-22T13:33:05;2.53;;;1.80;;
12585;SDS011;6358;50.760;0.282;2023-12-22T13:35:32;3.37;;;1.73;;
12585;SDS011;6358;50.760;0.282;2023-12-22T13:38:00;3.93;;;1.50;;
12585;SDS011;6358;50.760;0.282;2023-12-22T13:40:26;3.83;;;1.60;;
12585;SDS011;6358;50.760;0.282;2023-12-22T13:42:58;2.97;;;1.60;;
12585;SDS011;6358;50.760;0.282;2023-12-22T13:45:27;3.83;;;1.70;;
12585;SDS011;6358;50.760;0.282;2023-12-22T13:47:53;3.27;;;1.70;;
12585;SDS011;6358;50.760;0.282;2023-12-22T13:50:20;3.80;;;1.50;;
12585;SDS011;6358;50.760;0.282;2023-12-22T13:52:50;3.13;;;1.70;;
12585;SDS011;6358;50.760;0.282;2023-12-22T13:55:17;3.57;;;1.80;;
12585;SDS011;6358;50.760;0.282;2023-12-22T13:57:44;3.23;;;1.50;;
12585;SDS011;6358;50.760;0.282;2023-12-22T14:02:42;2.90;;;1.40;;
12585;SDS011;6358;50.760;0.282;2023-12-22T14:05:08;4.67;;;1.40;;
12585;SDS011;6358;50.760;0.282;2023-12-22T14:07:35;3.77;;;1.50;;
12585;SDS011;6358;50.760;0.282;2023-12-22T14:10:07;2.57;;;1.50;;
12585;SDS011;6358;50.760;0.282;2023-12-22T14:12:34;4.47;;;1.60;;
12585;SDS011;6358;50.760;0.282;2023-12-22T14:15:00;2.93;;;1.47;;
12585;SDS011;6358;50.760;0.282;2023-12-22T14:17:26;2.57;;;1.30;;
12585;SDS011;6358;50.760;0.282;2023-12-22T14:19:52;2.43;;;1.33;;
12585;SDS011;6358;50.760;0.282;2023-12-22T14:22:18;3.80;;;1.47;;
12585;SDS011;6358;50.760;0.282;2023-12-22T14:24:44;3.93;;;1.50;;
12585;SDS011;6358;50.760;0.282;2023-12-22T14:27:10;2.57;;;1.27;;
12585;SDS011;6358;50.760;0.282;2023-12-22T14:29:39;3.00;;;1.50;;
12585;SDS011;6358;50.760;0.282;2023-12-22T14:32:06;2.53;;;1.37;;
12585;SDS011;6358;50.760;0.282;2023-12-22T14:34:37;2.63;;;1.40;;
12585;SDS011;6358;50.760;0.282;2023-12-22T14:37:03;3.73;;;1.47;;
12585;SDS011;6358;50.760;0.282;2023-12-22T14:39:29;2.90;;;1.60;;
12585;SDS011;6358;50.760;0.282;2023-12-22T14:41:56;2.33;;;1.40;;
12585;SDS011;6358;50.760;0.282;2023-12-22T14:44:22;2.73;;;1.40;;
12585;SDS011;6358;50.760;0.282;2023-12-22T14:46:49;3.77;;;1.30;;
12585;SDS011;6358;50.760;0.282;2023-12-22T14:49:15;2.97;;;1.40;;
12585;SDS011;6358;50.760;0.282;2023-12-22T14:51:43;2.20;;;1.40;;
12585;SDS011;6358;50.760;0.282;2023-12-22T14:54:11;4.73;;;1.80;;
12585;SDS011;6358;50.760;0.282;2023-12-22T14:56:40;3.00;;;1.40;;
12585;SDS011;6358;50.760;0.282;2023-12-22T14:59:12;3.73;;;1.60;;
12585;SDS011;6358;50.760;0.282;2023-12-22T15:01:42;2.30;;;1.60;;
12585;SDS011;6358;50.760;0.282;2023-12-22T15:04:08;2.00;;;1.30;;
12585;SDS011;6358;50.760;0.282;2023-12-22T15:06:37;2.10;;;1.30;;
12585;SDS011;6358;50.760;0.282;2023-12-22T15:09:09;3.83;;;1.80;;